Time;durP1;ratioP1;P1;durP2;ratioP2;P2;SDS_P1;SDS_P2;PMS_P1;PMS_P2;Temp;Humidity;BMP_temperature;BMP_pressure;BME280_temperature;BME280_humidity;BME280_pressure;Samples;Min_cycle;Max_cycle;Signal;HPM_P1;HPM_P2
2022/12/12 00:00:49;;;;;;;2.73;2.63;;;0.00;99.90;;;;;;4934316;29;20218;-89
2022/12/12 00:03:15;;;;;;;3.97;3.47;;;0.00;99.90;;;;;;4951097;28;20636;-89
2022/12/12 00:05:41;;;;;;;3.27;3.17;;;-0.10;99.90;;;;;;4950719;28;20195;-89
2022/12/12 00:08:07;;;;;;;5.77;3.23;;;-0.10;99.90;;;;;;4959586;28;20651;-89
2022/12/12 00:10:33;;;;;;;3.20;3.07;;;-0.20;99.90;;;;;;4949386;28;20196;-89
2022/12/12 00:12:59;;;;;;;2.20;1.80;;;-0.30;99.90;;;;;;4940800;29;20244;-89
2022/12/12 00:15:26;;;;;;;2.77;2.30;;;-0.50;99.90;;;;;;4937361;28;20209;-89
2022/12/12 00:17:53;;;;;;;1.63;1.63;;;-0.60;99.90;;;;;;4954396;28;20206;-89
2022/12/12 00:20:19;;;;;;;3.80;3.50;;;-0.70;99.90;;;;;;4952249;28;20324;-89
2022/12/12 00:22:45;;;;;;;3.03;2.83;;;-0.60;99.90;;;;;;4939883;29;20197;-89
2022/12/12 00:25:11;;;;;;;2.83;2.63;;;-0.50;99.90;;;;;;4937758;28;20190;-89
2022/12/12 00:27:37;;;;;;;11.80;3.13;;;-0.40;99.90;;;;;;4952848;28;20806;-89
2022/12/12 00:30:04;;;;;;;2.07;1.97;;;-0.50;99.90;;;;;;4939639;29;20285;-89
2022/12/12 00:32:30;;;;;;;12.93;3.40;;;-0.40;99.90;;;;;;4946458;28;20224;-89
2022/12/12 00:34:56;;;;;;;4.57;3.10;;;-0.30;99.90;;;;;;4948321;29;20204;-90
2022/12/12 00:37:22;;;;;;;1.37;1.37;;;-0.30;99.90;;;;;;4933965;29;20186;-90
2022/12/12 00:39:48;;;;;;;0.83;0.83;;;-0.30;99.90;;;;;;4954313;28;20564;-90
2022/12/12 00:42:14;;;;;;;3.50;3.40;;;-0.20;99.90;;;;;;4946719;29;20353;-90
2022/12/12 00:44:40;;;;;;;2.57;2.47;;;-0.20;99.90;;;;;;4955573;28;20205;-89
2022/12/12 00:47:05;;;;;;;2.50;2.40;;;-0.20;99.90;;;;;;4951595;28;20196;-89
2022/12/12 00:49:31;;;;;;;2.50;2.33;;;-0.20;99.90;;;;;;4920418;29;20682;-89
2022/12/12 00:51:57;;;;;;;4.73;1.83;;;-0.30;99.90;;;;;;4956036;28;20677;-90
2022/12/12 00:54:23;;;;;;;3.87;3.67;;;-0.20;99.90;;;;;;4947545;29;20208;-89
2022/12/12 00:56:49;;;;;;;4.70;3.00;;;-0.20;99.90;;;;;;4936779;29;20191;-90
2022/12/12 00:59:15;;;;;;;2.27;2.17;;;-0.20;99.90;;;;;;4934578;29;20195;-89
2022/12/12 01:01:41;;;;;;;3.27;2.73;;;-0.20;99.90;;;;;;4954475;28;20248;-89
2022/12/12 01:04:08;;;;;;;1.37;1.37;;;-0.10;99.90;;;;;;4953587;28;20237;-89
2022/12/12 01:06:34;;;;;;;2.73;2.63;;;-0.10;99.90;;;;;;4955838;28;20230;-90
2022/12/12 01:08:59;;;;;;;5.40;3.60;;;-0.10;99.90;;;;;;4933844;28;20228;-90
2022/12/12 01:11:25;;;;;;;2.53;2.20;;;0.00;99.90;;;;;;4938973;28;20667;-88
2022/12/12 01:13:53;;;;;;;4.10;3.70;;;0.00;99.90;;;;;;4934821;29;20194;-90
2022/12/12 01:16:19;;;;;;;6.37;2.00;;;0.00;99.90;;;;;;4937757;29;20222;-90
2022/12/12 01:18:45;;;;;;;3.97;3.77;;;0.00;99.90;;;;;;4935255;29;20759;-89
2022/12/12 01:21:14;;;;;;;2.50;2.30;;;0.00;99.90;;;;;;4945223;28;20316;-89
2022/12/12 01:23:40;;;;;;;1.20;1.20;;;0.00;99.90;;;;;;4945895;28;20205;-89
2022/12/12 01:26:26;;;;;;;0.97;0.97;;;0.10;99.90;;;;;;4944356;28;20285;-89
2022/12/12 01:28:52;;;;;;;2.80;1.97;;;0.10;99.90;;;;;;4939187;28;20206;-89
2022/12/12 01:31:19;;;;;;;3.37;3.10;;;0.10;99.90;;;;;;4954168;28;20205;-89
2022/12/12 01:33:45;;;;;;;5.03;3.13;;;0.10;99.90;;;;;;4938541;28;20277;-89
2022/12/12 01:36:15;;;;;;;1.80;1.70;;;0.20;99.90;;;;;;4946317;28;20266;-89
2022/12/12 01:38:45;;;;;;;2.07;1.97;;;0.20;99.90;;;;;;4936289;28;20185;-89
2022/12/12 01:41:12;;;;;;;3.70;3.07;;;0.30;99.90;;;;;;4952273;28;20245;-89
2022/12/12 01:43:38;;;;;;;3.37;3.20;;;0.30;99.90;;;;;;4932420;29;20189;-89
2022/12/12 01:46:04;;;;;;;3.03;2.77;;;0.30;99.90;;;;;;4937553;29;20197;-90
2022/12/12 01:48:38;;;;;;;5.10;2.10;;;0.40;99.90;;;;;;4955034;28;20869;-90
2022/12/12 01:51:09;;;;;;;2.33;2.13;;;0.40;99.90;;;;;;4952062;28;20202;-89
2022/12/12 01:53:35;;;;;;;6.50;5.13;;;0.50;99.90;;;;;;4956094;28;20193;-89
2022/12/12 01:56:04;;;;;;;2.17;1.70;;;0.50;99.90;;;;;;4961806;28;20363;-89
2022/12/12 01:58:30;;;;;;;3.50;2.60;;;0.50;99.90;;;;;;4949253;28;20286;-89
2022/12/12 02:00:56;;;;;;;1.30;1.30;;;0.50;99.90;;;;;;4947133;29;20221;-89
2022/12/12 02:03:22;;;;;;;6.80;3.50;;;0.60;99.90;;;;;;4933410;28;20229;-89
2022/12/12 02:05:58;;;;;;;3.60;3.40;;;0.60;99.90;;;;;;4933689;29;20350;-89
2022/12/12 02:08:25;;;;;;;4.27;3.93;;;0.60;99.90;;;;;;4944752;29;20255;-90
2022/12/12 02:10:51;;;;;;;1.37;1.37;;;0.60;99.90;;;;;;4938294;29;20213;-90
2022/12/12 02:13:27;;;;;;;2.33;2.23;;;0.60;99.90;;;;;;4945075;29;20190;-90
2022/12/12 02:15:53;;;;;;;2.90;2.17;;;0.70;99.90;;;;;;4952910;28;20217;-88
2022/12/12 02:18:38;;;;;;;3.73;2.20;;;0.70;99.90;;;;;;4945096;28;20671;-89
2022/12/12 02:21:25;;;;;;;4.03;2.87;;;0.70;99.90;;;;;;4951596;28;20220;-89
2022/12/12 02:24:03;;;;;;;2.60;2.47;;;0.70;99.90;;;;;;4933117;29;20189;-89
2022/12/12 02:26:28;;;;;;;6.70;4.67;;;0.70;99.90;;;;;;4952836;28;20197;-89
2022/12/12 02:29:06;;;;;;;3.03;2.93;;;0.70;99.90;;;;;;4937673;28;20730;-89
2022/12/12 02:31:53;;;;;;;5.57;4.87;;;0.70;99.90;;;;;;4936366;29;20193;-89
2022/12/12 02:34:44;;;;;;;2.83;2.60;;;0.70;99.90;;;;;;4951857;28;20197;-89
2022/12/12 02:37:40;;;;;;;4.53;4.23;;;0.70;99.90;;;;;;4949799;28;20930;-89
2022/12/12 02:40:20;;;;;;;1.87;1.77;;;0.70;99.90;;;;;;4936386;28;20196;-89
2022/12/12 02:43:02;;;;;;;4.60;4.20;;;0.70;99.90;;;;;;4937545;29;20204;-88
2022/12/12 02:45:49;;;;;;;2.57;1.90;;;0.70;99.90;;;;;;4937971;29;20491;-88
2022/12/12 02:48:27;;;;;;;2.50;2.37;;;0.80;99.90;;;;;;4952008;28;20206;-89
2022/12/12 02:50:56;;;;;;;5.43;4.63;;;0.80;99.90;;;;;;4944051;28;20217;-87
2022/12/12 02:53:22;;;;;;;5.80;3.53;;;0.70;99.90;;;;;;4936726;28;20198;-89
2022/12/12 02:55:49;;;;;;;4.43;3.83;;;0.80;99.90;;;;;;4931639;29;20186;-89
2022/12/12 02:58:18;;;;;;;2.73;2.50;;;0.80;99.90;;;;;;4937962;29;20551;-89
2022/12/12 03:01:10;;;;;;;8.63;4.80;;;0.80;99.90;;;;;;4930225;28;20225;-89
2022/12/12 03:10:34;;;;;;;3.53;3.27;;;0.80;99.90;;;;;;4937376;29;20242;-89
2022/12/12 03:13:37;;;;;;;1.17;1.13;;;0.80;99.90;;;;;;4949763;28;20233;-89
2022/12/12 03:16:18;;;;;;;1.93;1.27;;;0.70;99.90;;;;;;4955764;28;20189;-89
2022/12/12 03:18:53;;;;;;;6.33;3.43;;;0.70;99.90;;;;;;4931500;29;20205;-90
2022/12/12 03:21:25;;;;;;;3.07;2.13;;;0.80;99.90;;;;;;4933502;28;20217;-89
2022/12/12 03:23:55;;;;;;;7.07;4.43;;;0.80;99.90;;;;;;4942862;28;20197;-90
2022/12/12 03:26:54;;;;;;;6.27;2.77;;;0.70;99.90;;;;;;4931909;29;20186;-90
2022/12/12 03:29:27;;;;;;;3.93;3.70;;;0.70;99.90;;;;;;4943618;28;20209;-90
2022/12/12 03:31:59;;;;;;;4.50;4.13;;;0.60;99.90;;;;;;4937747;28;20677;-90
2022/12/12 03:34:34;;;;;;;3.73;3.53;;;0.60;99.90;;;;;;4939537;28;20221;-91
2022/12/12 03:37:04;;;;;;;4.87;4.53;;;0.60;99.90;;;;;;4947434;28;20663;-89
2022/12/12 03:39:45;;;;;;;3.23;3.07;;;0.60;99.90;;;;;;4953198;28;20186;-89
2022/12/12 03:42:21;;;;;;;4.43;1.60;;;0.50;99.90;;;;;;4937563;29;20304;-90
2022/12/12 03:44:59;;;;;;;4.33;4.03;;;0.50;99.90;;;;;;4942538;28;20273;-89
2022/12/12 03:47:31;;;;;;;8.40;4.67;;;0.40;99.90;;;;;;4938773;28;20787;-90
2022/12/12 03:50:05;;;;;;;2.43;2.30;;;0.40;99.90;;;;;;4947352;29;20455;-90
2022/12/12 03:52:36;;;;;;;7.73;4.20;;;0.40;99.90;;;;;;4946897;29;20213;-89
2022/12/12 03:55:13;;;;;;;3.90;3.60;;;0.30;99.90;;;;;;4941793;28;20643;-90
2022/12/12 03:57:50;;;;;;;4.60;3.30;;;0.40;99.90;;;;;;4941624;29;20272;-90
2022/12/12 04:00:17;;;;;;;2.90;2.70;;;0.30;99.90;;;;;;4934598;28;20179;-89
2022/12/12 04:03:05;;;;;;;3.13;2.97;;;0.20;99.90;;;;;;4951192;28;20206;-90
2022/12/12 04:05:36;;;;;;;3.30;3.07;;;0.10;99.90;;;;;;4945454;29;20624;-90
2022/12/12 04:08:14;;;;;;;3.07;2.87;;;0.10;99.90;;;;;;4950905;28;20714;-90
2022/12/12 04:14:08;;;;;;;1.93;1.80;;;0.20;99.90;;;;;;4934241;29;20186;-89
2022/12/12 04:16:39;;;;;;;2.63;2.47;;;0.30;99.90;;;;;;4939822;28;20271;-90
2022/12/12 04:23:13;;;;;;;8.20;4.10;;;0.30;99.90;;;;;;4953063;28;20776;-90
2022/12/12 04:24:58;;;;;;;1.67;1.57;;;0.20;99.90;;;;;;4950336;28;20641;-90
2022/12/12 04:27:33;;;;;;;5.57;2.40;;;0.20;99.90;;;;;;4938274;29;20706;-90
2022/12/12 04:30:11;;;;;;;11.30;4.80;;;0.20;99.90;;;;;;4938296;29;20188;-90
2022/12/12 04:33:08;;;;;;;3.17;2.93;;;0.20;99.90;;;;;;4938460;28;20189;-90
2022/12/12 04:35:48;;;;;;;5.37;2.17;;;0.20;99.90;;;;;;4944512;28;20220;-90
2022/12/12 04:38:22;;;;;;;3.97;3.77;;;0.10;99.90;;;;;;4961200;28;20197;-90
2022/12/12 04:40:57;;;;;;;4.87;3.37;;;0.10;99.90;;;;;;4939997;28;20693;-89
2022/12/12 04:43:32;;;;;;;3.67;3.00;;;0.10;99.90;;;;;;4938105;29;20202;-89
2022/12/12 04:46:02;;;;;;;1.27;1.27;;;0.00;99.90;;;;;;4946865;29;20194;-90
2022/12/12 04:48:55;;;;;;;2.93;2.73;;;0.00;99.90;;;;;;4933506;29;20188;-92
2022/12/12 04:51:35;;;;;;;4.77;4.00;;;0.00;99.90;;;;;;4950461;28;20205;-90
2022/12/12 04:54:08;;;;;;;4.87;3.13;;;0.00;99.90;;;;;;4940292;28;20204;-90
2022/12/12 04:56:37;;;;;;;2.17;2.07;;;-0.10;99.90;;;;;;4957358;28;20713;-90
2022/12/12 04:59:05;;;;;;;1.43;1.33;;;-0.10;99.90;;;;;;4955923;28;20192;-91
2022/12/12 05:01:49;;;;;;;6.30;2.80;;;-0.10;99.90;;;;;;4952449;28;20210;-90
2022/12/12 05:04:58;;;;;;;2.30;2.27;;;-0.10;99.90;;;;;;4938057;28;20243;-90
2022/12/12 05:07:38;;;;;;;1.53;1.43;;;-0.20;99.90;;;;;;4953288;28;20221;-90
2022/12/12 05:10:08;;;;;;;3.53;3.33;;;-0.20;99.90;;;;;;4939899;29;20233;-89
2022/12/12 05:12:49;;;;;;;10.27;4.90;;;-0.20;99.90;;;;;;4952572;28;20197;-89
2022/12/12 05:15:16;;;;;;;4.23;3.93;;;-0.20;99.90;;;;;;4952718;28;20655;-90
2022/12/12 05:17:52;;;;;;;3.73;3.40;;;-0.20;99.90;;;;;;4935612;29;20236;-90
2022/12/12 05:20:18;;;;;;;6.77;3.03;;;-0.30;99.90;;;;;;4956905;28;20186;-90
2022/12/12 05:22:43;;;;;;;6.50;4.33;;;-0.30;99.90;;;;;;4936731;29;20274;-90
2022/12/12 05:25:09;;;;;;;5.37;4.90;;;-0.30;99.90;;;;;;4953916;28;20222;-90
2022/12/12 05:27:35;;;;;;;1.60;1.50;;;-0.30;99.90;;;;;;4945863;28;20205;-90
2022/12/12 05:30:01;;;;;;;2.23;1.90;;;-0.40;99.90;;;;;;4946254;28;20268;-91
2022/12/12 05:32:27;;;;;;;1.90;1.83;;;-0.50;99.90;;;;;;4936317;29;20750;-90
2022/12/12 05:34:52;;;;;;;3.07;2.87;;;-0.40;99.90;;;;;;4952405;28;20293;-90
2022/12/12 05:37:18;;;;;;;0.83;0.83;;;-0.40;99.90;;;;;;4950041;28;20205;-90
2022/12/12 05:39:44;;;;;;;8.93;3.63;;;-0.40;99.90;;;;;;4944339;29;20648;-90
2022/12/12 05:42:09;;;;;;;3.07;2.77;;;-0.30;99.90;;;;;;4937258;29;20277;-90
2022/12/12 05:44:35;;;;;;;5.80;2.50;;;-0.40;99.90;;;;;;4945190;29;20579;-90
2022/12/12 05:47:01;;;;;;;7.13;2.43;;;-0.30;99.90;;;;;;4944116;29;20194;-90
2022/12/12 05:49:26;;;;;;;1.93;1.83;;;-0.40;99.90;;;;;;4956059;28;20193;-91
2022/12/12 05:51:52;;;;;;;1.90;1.80;;;-0.40;99.90;;;;;;4960105;28;20292;-90
2022/12/12 05:54:18;;;;;;;10.53;4.13;;;-0.40;99.90;;;;;;4913929;29;20181;-89
2022/12/12 05:56:43;;;;;;;2.47;2.27;;;-0.40;99.90;;;;;;4912811;29;20187;-90
2022/12/12 05:59:09;;;;;;;2.17;2.00;;;-0.40;99.90;;;;;;4938586;28;20296;-91
2022/12/12 06:01:35;;;;;;;4.10;3.87;;;-0.40;99.90;;;;;;4940341;29;20205;-90
2022/12/12 06:04:01;;;;;;;3.70;2.30;;;-0.40;99.90;;;;;;4953222;28;20586;-91
2022/12/12 06:06:27;;;;;;;3.87;3.63;;;-0.40;99.90;;;;;;4950514;28;21126;-89
2022/12/12 06:08:52;;;;;;;4.67;4.40;;;-0.40;99.90;;;;;;4952499;28;20241;-89
2022/12/12 06:11:18;;;;;;;5.33;4.70;;;-0.60;99.90;;;;;;4946334;28;20207;-91
2022/12/12 06:13:44;;;;;;;2.93;2.67;;;-0.50;99.90;;;;;;4937740;29;20209;-90
2022/12/12 06:16:14;;;;;;;4.57;4.23;;;-0.50;99.90;;;;;;4951849;28;20194;-90
2022/12/12 06:18:40;;;;;;;7.43;2.87;;;-0.50;99.90;;;;;;4938538;29;20202;-90
2022/12/12 06:21:08;;;;;;;6.27;5.17;;;-0.60;99.90;;;;;;4951065;28;20226;-91
2022/12/12 06:23:41;;;;;;;4.40;4.00;;;-0.70;99.90;;;;;;4942976;29;20213;-89
2022/12/12 06:26:08;;;;;;;39.77;36.13;;;-0.60;99.90;;;;;;4940485;28;20455;-90
2022/12/12 06:28:35;;;;;;;19.07;17.23;;;-0.60;99.90;;;;;;4950215;28;20185;-90
2022/12/12 06:31:01;;;;;;;5.40;4.97;;;-0.60;99.90;;;;;;4936117;29;20228;-92
2022/12/12 06:33:27;;;;;;;3.73;3.00;;;-0.60;99.90;;;;;;4942710;29;20569;-89
2022/12/12 06:36:02;;;;;;;4.50;2.67;;;-0.70;99.90;;;;;;4943182;28;20209;-89
2022/12/12 06:38:29;;;;;;;3.47;3.03;;;-0.70;99.90;;;;;;4939306;29;20748;-89
2022/12/12 06:40:55;;;;;;;2.77;2.67;;;-0.70;99.90;;;;;;4942799;28;20483;-88
2022/12/12 06:43:21;;;;;;;3.77;3.47;;;-0.70;99.90;;;;;;4950165;28;20205;-89
2022/12/12 06:45:46;;;;;;;6.60;2.63;;;-0.70;99.90;;;;;;4934247;28;20197;-91
2022/12/12 06:48:12;;;;;;;5.80;2.90;;;-0.70;99.90;;;;;;4938876;29;20247;-91
2022/12/12 06:50:39;;;;;;;1.87;1.77;;;-0.70;99.90;;;;;;4943818;29;20280;-90
2022/12/12 06:53:05;;;;;;;2.50;2.40;;;-0.70;99.90;;;;;;4934653;29;20187;-89
2022/12/12 06:55:31;;;;;;;6.30;3.17;;;-0.70;99.90;;;;;;4949516;28;20715;-89
2022/12/12 06:57:56;;;;;;;2.90;2.67;;;-0.70;99.90;;;;;;4950754;28;20189;-90
2022/12/12 07:00:23;;;;;;;1.63;1.63;;;-0.70;99.90;;;;;;4937769;28;20285;-89
2022/12/12 07:02:49;;;;;;;7.50;5.27;;;-0.60;99.90;;;;;;4949565;28;20202;-86
2022/12/12 07:05:15;;;;;;;2.30;2.10;;;-0.60;99.90;;;;;;4937337;29;20481;-90
2022/12/12 07:07:41;;;;;;;2.47;2.03;;;-0.50;99.90;;;;;;4934110;29;20268;-86
2022/12/12 07:10:07;;;;;;;3.77;3.53;;;-0.50;99.90;;;;;;4942712;28;20245;-87
2022/12/12 07:12:33;;;;;;;2.13;2.00;;;-0.60;99.90;;;;;;4932034;28;20202;-89
2022/12/12 07:14:58;;;;;;;3.30;3.13;;;-0.70;99.90;;;;;;4910568;28;20233;-86
2022/12/12 07:17:24;;;;;;;2.80;2.60;;;-0.80;99.90;;;;;;4947333;28;20185;-86
2022/12/12 07:19:50;;;;;;;2.63;2.13;;;-0.70;99.90;;;;;;4935426;28;20248;-88
2022/12/12 07:22:16;;;;;;;8.23;4.90;;;-0.60;99.90;;;;;;4928118;28;20316;-86
2022/12/12 07:24:42;;;;;;;3.43;3.13;;;-0.60;99.90;;;;;;4937667;29;20202;-87
2022/12/12 07:27:07;;;;;;;4.97;4.43;;;-0.50;99.90;;;;;;4936938;29;20201;-87
2022/12/12 07:29:33;;;;;;;3.27;3.07;;;-0.60;99.90;;;;;;4942646;28;20284;-86
2022/12/12 07:31:59;;;;;;;2.53;2.37;;;-0.70;99.90;;;;;;4944261;28;20226;-86
2022/12/12 07:34:27;;;;;;;1.77;1.67;;;-0.70;99.90;;;;;;4947798;28;20194;-87
2022/12/12 07:36:53;;;;;;;2.87;2.43;;;-0.60;99.90;;;;;;4933903;29;20198;-93
2022/12/12 07:39:19;;;;;;;3.63;3.47;;;-0.50;99.90;;;;;;4945413;28;20228;-91
2022/12/12 07:41:45;;;;;;;3.77;3.47;;;-0.50;99.90;;;;;;4950805;28;20225;-91
2022/12/12 07:44:10;;;;;;;1.80;1.67;;;-0.50;99.90;;;;;;4932455;29;20191;-90
2022/12/12 07:46:36;;;;;;;2.40;2.17;;;-0.50;99.90;;;;;;4942893;28;20197;-92
2022/12/12 07:49:02;;;;;;;2.83;2.60;;;-0.40;99.90;;;;;;4937017;28;20193;-91
2022/12/12 07:51:29;;;;;;;1.17;1.17;;;-0.40;99.90;;;;;;4934316;29;20198;-90
2022/12/12 07:53:55;;;;;;;2.43;2.23;;;-0.40;99.90;;;;;;4948493;28;20201;-93
2022/12/12 07:56:21;;;;;;;10.83;2.27;;;-0.50;99.90;;;;;;4935617;29;20198;-91
2022/12/12 07:58:47;;;;;;;3.83;3.53;;;-0.70;99.90;;;;;;4950436;28;20550;-91
2022/12/12 08:01:15;;;;;;;5.93;3.70;;;-0.60;99.90;;;;;;4933865;29;20218;-88
2022/12/12 08:03:43;;;;;;;4.10;2.73;;;-0.50;99.90;;;;;;4933944;29;20241;-90
2022/12/12 08:06:09;;;;;;;2.47;2.33;;;-0.40;99.90;;;;;;4943240;28;20196;-88
2022/12/12 08:08:35;;;;;;;2.73;2.60;;;-0.30;99.90;;;;;;4951361;28;20280;-88
2022/12/12 08:11:08;;;;;;;2.13;2.03;;;-0.20;99.90;;;;;;4933427;29;20260;-89
2022/12/12 08:13:37;;;;;;;2.73;2.60;;;-0.10;99.90;;;;;;4933914;29;20216;-88
2022/12/12 08:16:04;;;;;;;2.70;2.37;;;-0.10;99.90;;;;;;4947591;28;20186;-89
2022/12/12 08:18:30;;;;;;;1.57;1.47;;;-0.10;99.90;;;;;;4932565;29;20186;-89
2022/12/12 08:20:56;;;;;;;3.60;3.30;;;-0.10;99.90;;;;;;4936265;29;20235;-88
2022/12/12 08:23:22;;;;;;;0.40;0.40;;;-0.10;99.90;;;;;;4947693;28;20194;-87
2022/12/12 08:25:48;;;;;;;3.87;3.50;;;-0.10;99.90;;;;;;4941959;29;20457;-88
2022/12/12 08:28:13;;;;;;;1.63;1.53;;;-0.20;99.90;;;;;;4934171;28;20210;-89
2022/12/12 08:30:39;;;;;;;1.30;1.30;;;-0.10;99.90;;;;;;4958436;28;20201;-92
2022/12/12 08:33:05;;;;;;;2.33;2.17;;;-0.10;99.90;;;;;;4943141;29;20604;-92
2022/12/12 08:35:31;;;;;;;5.57;3.27;;;-0.10;99.90;;;;;;4945165;28;20225;-92
2022/12/12 08:37:58;;;;;;;3.17;2.97;;;0.00;99.90;;;;;;4938263;29;20225;-91
2022/12/12 08:40:24;;;;;;;2.77;2.67;;;0.00;99.90;;;;;;4937816;28;20186;-89
2022/12/12 08:42:50;;;;;;;1.43;1.43;;;0.00;99.90;;;;;;4940623;29;20205;-91
2022/12/12 08:45:16;;;;;;;3.00;1.83;;;0.00;99.90;;;;;;4960748;28;20497;-91
2022/12/12 08:47:42;;;;;;;4.47;2.10;;;0.10;99.90;;;;;;4928517;28;20265;-87
2022/12/12 08:50:08;;;;;;;9.40;4.70;;;0.10;99.90;;;;;;4935379;28;20264;-89
2022/12/12 08:52:34;;;;;;;3.57;2.57;;;0.20;99.90;;;;;;4939585;29;20201;-87
2022/12/12 08:54:59;;;;;;;1.87;1.83;;;0.20;99.90;;;;;;4938596;29;20201;-90
2022/12/12 08:57:25;;;;;;;13.90;2.57;;;0.20;99.90;;;;;;4950917;28;20198;-91
2022/12/12 08:59:51;;;;;;;3.90;3.70;;;0.30;99.90;;;;;;4918231;29;20253;-88
2022/12/12 09:02:16;;;;;;;7.60;3.07;;;0.30;99.90;;;;;;4932392;29;20361;-85
2022/12/12 09:04:42;;;;;;;1.63;1.37;;;0.40;99.90;;;;;;4950154;28;20198;-88
2022/12/12 09:07:08;;;;;;;19.13;2.53;;;0.40;99.90;;;;;;4935935;28;20367;-89
2022/12/12 09:09:34;;;;;;;1.83;1.80;;;0.50;99.90;;;;;;4947000;28;20242;-88
2022/12/12 09:11:59;;;;;;;2.00;1.90;;;0.60;99.90;;;;;;4950311;28;20197;-90
2022/12/12 09:14:25;;;;;;;6.30;2.63;;;0.70;99.90;;;;;;4934680;29;20197;-86
2022/12/12 09:16:51;;;;;;;3.87;3.60;;;0.70;99.90;;;;;;4936026;29;20280;-89
2022/12/12 09:19:16;;;;;;;2.60;1.57;;;0.80;99.90;;;;;;4945743;28;20555;-88
2022/12/12 09:21:42;;;;;;;5.60;4.23;;;0.80;99.90;;;;;;4932551;29;20252;-89
2022/12/12 09:24:08;;;;;;;1.23;1.23;;;0.80;99.90;;;;;;4949228;28;20253;-89
2022/12/12 09:26:33;;;;;;;5.87;3.77;;;0.90;99.90;;;;;;4949209;28;20190;-90
2022/12/12 09:28:59;;;;;;;3.00;1.00;;;1.00;99.90;;;;;;4937588;29;20556;-92
2022/12/12 09:31:25;;;;;;;3.90;1.80;;;1.00;99.90;;;;;;4945084;28;20682;-87
2022/12/12 09:33:51;;;;;;;9.90;3.30;;;1.10;99.90;;;;;;4934398;29;20256;-91
2022/12/12 09:36:17;;;;;;;2.67;2.50;;;1.20;99.90;;;;;;4944710;29;20197;-88
2022/12/12 09:38:42;;;;;;;2.43;2.27;;;1.20;99.90;;;;;;4933304;29;20289;-89
2022/12/12 09:41:08;;;;;;;2.23;2.03;;;1.30;99.90;;;;;;4943517;29;20861;-89
2022/12/12 09:43:43;;;;;;;3.67;2.20;;;1.30;99.90;;;;;;4932063;29;20202;-87
2022/12/12 09:46:25;;;;;;;3.27;2.33;;;1.40;99.90;;;;;;4951824;28;20275;-90
2022/12/12 09:48:52;;;;;;;2.97;2.77;;;1.50;99.90;;;;;;4940228;28;20194;-86
2022/12/12 09:51:19;;;;;;;10.13;4.20;;;1.60;99.90;;;;;;4936139;29;20233;-89
2022/12/12 09:53:45;;;;;;;6.07;3.90;;;1.60;99.90;;;;;;4935565;29;20493;-88
2022/12/12 09:56:22;;;;;;;11.00;3.37;;;1.70;99.90;;;;;;4946061;28;20229;-87
2022/12/12 09:59:00;;;;;;;3.07;2.83;;;1.70;99.90;;;;;;4949809;28;20573;-89
2022/12/12 10:01:38;;;;;;;3.27;2.87;;;1.80;99.90;;;;;;4951750;28;21160;-89
2022/12/12 10:04:37;;;;;;;3.73;2.83;;;1.80;99.90;;;;;;4934067;29;20229;-87
2022/12/12 10:07:20;;;;;;;4.60;4.20;;;1.80;99.90;;;;;;4946239;28;20560;-87
2022/12/12 10:10:14;;;;;;;3.10;3.00;;;1.80;99.90;;;;;;4943524;28;20242;-86
2022/12/12 10:12:40;;;;;;;4.73;4.47;;;1.90;99.90;;;;;;4945943;28;20201;-87
2022/12/12 10:15:16;;;;;;;4.90;4.43;;;2.00;99.90;;;;;;4950193;28;20205;-87
2022/12/12 10:17:45;;;;;;;2.30;2.03;;;2.00;99.90;;;;;;4950579;28;20190;-87
2022/12/12 10:20:17;;;;;;;4.13;3.73;;;2.00;99.90;;;;;;4931494;29;20201;-86
2022/12/12 10:23:06;;;;;;;3.73;2.20;;;2.00;99.90;;;;;;4936608;28;20281;-87
2022/12/12 10:25:38;;;;;;;4.27;3.97;;;2.00;99.90;;;;;;4933156;29;20209;-85
2022/12/12 10:28:08;;;;;;;7.87;3.33;;;2.00;99.90;;;;;;4946235;28;20193;-87
2022/12/12 10:30:41;;;;;;;3.37;2.63;;;2.00;99.90;;;;;;4945196;28;20190;-89
2022/12/12 10:33:38;;;;;;;1.93;1.83;;;2.00;99.90;;;;;;4930771;29;20182;-86
2022/12/12 10:36:34;;;;;;;3.93;2.80;;;2.10;99.90;;;;;;4948655;28;20280;-88
2022/12/12 10:39:07;;;;;;;4.40;4.20;;;2.10;99.90;;;;;;4945161;28;20198;-87
2022/12/12 10:41:59;;;;;;;4.03;3.53;;;2.20;99.90;;;;;;4929092;29;20243;-87
2022/12/12 10:44:51;;;;;;;7.60;2.77;;;2.20;99.90;;;;;;4941321;29;20190;-85
2022/12/12 10:47:17;;;;;;;6.47;4.30;;;2.30;99.90;;;;;;4930142;29;20634;-88
2022/12/12 10:49:43;;;;;;;6.27;4.77;;;2.30;99.90;;;;;;4931027;29;20197;-85
2022/12/12 10:52:27;;;;;;;4.50;3.57;;;2.40;99.90;;;;;;4942268;28;20197;-90
2022/12/12 10:54:57;;;;;;;4.47;4.07;;;2.40;99.90;;;;;;4930156;28;20194;-86
2022/12/12 10:57:26;;;;;;;4.10;3.70;;;2.40;99.90;;;;;;4935098;28;20671;-91
2022/12/12 10:59:54;;;;;;;3.60;3.20;;;2.40;99.90;;;;;;4937122;28;20352;-91
2022/12/12 11:02:42;;;;;;;9.37;4.47;;;2.50;99.90;;;;;;4944435;28;20730;-92
2022/12/12 11:05:13;;;;;;;6.17;4.33;;;2.50;99.90;;;;;;4934295;29;20194;-91
2022/12/12 11:07:42;;;;;;;4.90;4.43;;;2.60;99.90;;;;;;4942319;29;20205;-91
2022/12/12 11:10:24;;;;;;;4.10;3.73;;;2.70;99.90;;;;;;4953478;28;20242;-92
2022/12/12 11:13:09;;;;;;;3.73;3.57;;;2.60;99.90;;;;;;4942992;29;20579;-92
2022/12/12 11:15:49;;;;;;;0.80;0.80;;;2.60;99.90;;;;;;4954591;28;20694;-92
2022/12/12 11:18:18;;;;;;;3.30;3.00;;;2.60;99.90;;;;;;4943804;29;20270;-92
2022/12/12 11:20:49;;;;;;;4.93;3.60;;;2.60;99.90;;;;;;4942924;28;20213;-92
2022/12/12 11:23:24;;;;;;;5.97;3.80;;;2.60;99.90;;;;;;4932894;28;20197;-92
2022/12/12 11:26:19;;;;;;;7.80;4.33;;;2.60;99.90;;;;;;4938166;29;20948;-92
2022/12/12 11:28:52;;;;;;;3.10;2.90;;;2.60;99.90;;;;;;4950173;28;20663;-92
2022/12/12 11:31:22;;;;;;;5.43;2.90;;;2.70;99.90;;;;;;4950576;28;20193;-94
2022/12/12 11:33:54;;;;;;;3.13;2.93;;;2.70;99.90;;;;;;4933954;29;20185;-92
2022/12/12 11:36:41;;;;;;;5.90;3.83;;;2.70;99.90;;;;;;4936699;29;20178;-92
2022/12/12 11:39:24;;;;;;;3.97;3.67;;;2.70;99.90;;;;;;4945351;29;20193;-92
2022/12/12 11:42:15;;;;;;;9.00;5.03;;;2.80;99.90;;;;;;4944148;28;20208;-91
2022/12/12 11:44:43;;;;;;;2.93;2.80;;;2.80;99.90;;;;;;4943596;29;20186;-91
2022/12/12 11:47:28;;;;;;;3.93;3.57;;;2.70;99.90;;;;;;4934020;29;20216;-92
2022/12/12 11:49:56;;;;;;;3.57;3.30;;;2.80;99.90;;;;;;4942629;29;20241;-93
2022/12/12 11:52:30;;;;;;;6.57;6.03;;;2.80;99.90;;;;;;4948177;28;20709;-92
2022/12/12 11:54:57;;;;;;;7.30;6.60;;;2.90;99.90;;;;;;4935563;29;20184;-89
2022/12/12 11:57:51;;;;;;;4.77;4.37;;;2.90;99.90;;;;;;4950843;28;20190;-89
2022/12/12 12:00:22;;;;;;;9.33;8.47;;;2.90;99.90;;;;;;4937115;28;20342;-90
2022/12/12 12:03:10;;;;;;;8.70;8.00;;;3.00;99.90;;;;;;4934843;28;20207;-90
2022/12/12 12:05:57;;;;;;;6.67;5.77;;;3.10;99.90;;;;;;4952161;28;20537;-92
2022/12/12 12:08:23;;;;;;;5.00;4.27;;;3.00;99.90;;;;;;4943288;28;20253;-93
2022/12/12 12:11:07;;;;;;;10.17;8.90;;;2.90;99.90;;;;;;4953178;28;20241;-90
2022/12/12 12:14:10;;;;;;;12.20;10.17;;;2.90;99.90;;;;;;4955481;28;20292;-91
2022/12/12 12:17:09;;;;;;;15.43;9.83;;;2.90;99.90;;;;;;4946857;29;20200;-92
2022/12/12 12:20:03;;;;;;;8.57;6.53;;;2.90;99.90;;;;;;4939162;28;20193;-91
2022/12/12 12:22:42;;;;;;;9.80;5.70;;;3.00;99.90;;;;;;4936641;28;20216;-91
2022/12/12 12:25:21;;;;;;;6.67;5.47;;;3.00;99.90;;;;;;4939314;29;20277;-90
2022/12/12 12:28:20;;;;;;;16.80;10.90;;;3.00;99.90;;;;;;4939600;28;20196;-92
2022/12/12 12:30:58;;;;;;;6.43;5.97;;;3.00;99.90;;;;;;4938334;28;20554;-88
2022/12/12 12:33:32;;;;;;;6.03;5.50;;;3.10;99.90;;;;;;4940043;28;20224;-89
2022/12/12 12:36:22;;;;;;;3.60;3.40;;;3.00;99.90;;;;;;4939359;29;20550;-89
2022/12/12 12:38:59;;;;;;;8.03;6.13;;;3.10;99.90;;;;;;4945684;28;20196;-88
2022/12/12 12:41:49;;;;;;;6.23;5.60;;;3.30;99.90;;;;;;4936115;28;20304;-89
2022/12/12 12:44:30;;;;;;;6.43;5.83;;;3.80;99.90;;;;;;4939030;28;20194;-88
2022/12/12 12:47:21;;;;;;;5.93;5.53;;;4.50;99.90;;;;;;4937470;29;20237;-89
2022/12/12 12:50:14;;;;;;;10.67;5.37;;;4.80;99.90;;;;;;4944566;29;20604;-90
2022/12/12 12:52:47;;;;;;;5.67;5.23;;;4.80;99.90;;;;;;4947343;28;20198;-89
2022/12/12 12:55:20;;;;;;;8.40;3.97;;;4.70;99.90;;;;;;4934453;28;20210;-88
2022/12/12 12:57:48;;;;;;;6.27;3.90;;;4.50;99.90;;;;;;4935076;28;20193;-89
2022/12/12 13:00:17;;;;;;;12.37;6.40;;;4.30;99.90;;;;;;4945560;29;20204;-89
2022/12/12 13:02:55;;;;;;;4.83;3.90;;;4.10;99.90;;;;;;4943250;29;20284;-91
2022/12/12 13:05:39;;;;;;;6.07;4.70;;;4.00;99.90;;;;;;4939371;28;20197;-90
2022/12/12 13:08:29;;;;;;;4.30;3.90;;;4.00;99.90;;;;;;4938125;28;20269;-89
2022/12/12 13:11:02;;;;;;;11.90;5.23;;;3.90;99.90;;;;;;4937881;29;20248;-90
2022/12/12 13:13:30;;;;;;;4.87;3.53;;;3.70;99.90;;;;;;4951493;28;20220;-89
2022/12/12 13:16:06;;;;;;;6.27;4.23;;;3.50;99.90;;;;;;4949975;28;20197;-90
2022/12/12 13:18:33;;;;;;;5.57;3.93;;;3.30;99.90;;;;;;4934384;29;20589;-90
2022/12/12 13:21:07;;;;;;;5.03;3.93;;;3.20;99.90;;;;;;4938155;29;20244;-89
2022/12/12 13:24:00;;;;;;;4.23;3.87;;;3.10;99.90;;;;;;4954235;28;20259;-90
2022/12/12 13:26:38;;;;;;;10.90;4.57;;;3.00;99.90;;;;;;4945100;28;20273;-91
2022/12/12 13:29:12;;;;;;;6.53;4.40;;;3.00;99.90;;;;;;4949576;28;20553;-91
2022/12/12 13:31:59;;;;;;;4.93;4.63;;;2.90;99.90;;;;;;4935417;29;20243;-90